sensor_id;sensor_type;location;lat;lon;timestamp;pressure;altitude;pressure_sealevel;temperature;humidity
24858;BME280;12935;50.782;6.074;2022-09-09T00:00:51;98785.38;;;15.64;100.00
24858;BME280;12935;50.782;6.074;2022-09-09T00:06:55;98771.59;;;15.64;100.00
24858;BME280;12935;50.782;6.074;2022-09-09T00:09:28;98768.75;;;15.42;100.00
24858;BME280;12935;50.782;6.074;2022-09-09T00:12:00;98771.59;;;15.52;100.00
24858;BME280;12935;50.782;6.074;2022-09-09T00:14:51;98768.63;;;15.59;100.00
24858;BME280;12935;50.782;6.074;2022-09-09T00:20:16;98771.94;;;15.54;100.00
24858;BME280;12935;50.782;6.074;2022-09-09T00:22:53;98768.97;;;15.48;100.00
24858;BME280;12935;50.782;6.074;2022-09-09T00:25:28;98768.63;;;15.46;100.00
24858;BME280;12935;50.782;6.074;2022-09-09T00:27:55;98771.28;;;15.50;100.00
24858;BME280;12935;50.782;6.074;2022-09-09T00:30:24;98772.06;;;15.50;100.00
24858;BME280;12935;50.782;6.074;2022-09-09T00:32:54;98767.25;;;15.41;100.00
24858;BME280;12935;50.782;6.074;2022-09-09T00:35:36;98765.44;;;15.48;100.00
24858;BME280;12935;50.782;6.074;2022-09-09T00:38:09;98766.53;;;15.50;100.00
24858;BME280;12935;50.782;6.074;2022-09-09T00:40:41;98776.59;;;15.57;100.00
24858;BME280;12935;50.782;6.074;2022-09-09T00:43:28;98773.16;;;15.53;100.00
24858;BME280;12935;50.782;6.074;2022-09-09T00:49:14;98765.78;;;15.50;100.00
24858;BME280;12935;50.782;6.074;2022-09-09T00:51:54;98756.31;;;15.51;100.00
24858;BME280;12935;50.782;6.074;2022-09-09T00:54:51;98765.56;;;15.57;100.00
24858;BME280;12935;50.782;6.074;2022-09-09T00:57:29;98767.19;;;15.54;100.00
24858;BME280;12935;50.782;6.074;2022-09-09T01:05:46;98773.47;;;15.55;100.00
24858;BME280;12935;50.782;6.074;2022-09-09T01:11:25;98772.28;;;15.56;100.00
24858;BME280;12935;50.782;6.074;2022-09-09T01:14:09;98770.94;;;15.48;100.00
24858;BME280;12935;50.782;6.074;2022-09-09T01:16:36;98774.81;;;15.50;100.00
24858;BME280;12935;50.782;6.074;2022-09-09T01:19:02;98779.09;;;15.51;100.00
24858;BME280;12935;50.782;6.074;2022-09-09T01:22:03;98769.09;;;15.57;100.00
24858;BME280;12935;50.782;6.074;2022-09-09T01:25:11;98780.41;;;15.59;100.00
24858;BME280;12935;50.782;6.074;2022-09-09T01:27:40;98781.66;;;15.58;100.00
24858;BME280;12935;50.782;6.074;2022-09-09T01:30:10;98774.59;;;15.57;100.00
24858;BME280;12935;50.782;6.074;2022-09-09T01:32:43;98765.56;;;15.57;100.00
24858;BME280;12935;50.782;6.074;2022-09-09T01:37:54;98772.13;;;15.72;100.00
24858;BME280;12935;50.782;6.074;2022-09-09T01:40:19;98768.47;;;15.75;100.00
24858;BME280;12935;50.782;6.074;2022-09-09T01:42:44;98762.50;;;15.76;100.00
24858;BME280;12935;50.782;6.074;2022-09-09T01:45:10;98762.41;;;15.80;100.00
24858;BME280;12935;50.782;6.074;2022-09-09T01:47:35;98767.78;;;15.84;100.00
24858;BME280;12935;50.782;6.074;2022-09-09T01:50:02;98755.78;;;15.77;100.00
24858;BME280;12935;50.782;6.074;2022-09-09T01:52:28;98756.88;;;15.80;100.00
24858;BME280;12935;50.782;6.074;2022-09-09T01:54:54;98754.59;;;15.78;100.00
24858;BME280;12935;50.782;6.074;2022-09-09T01:57:24;98761.50;;;15.83;100.00
24858;BME280;12935;50.782;6.074;2022-09-09T02:00:03;98763.72;;;15.88;100.00
24858;BME280;12935;50.782;6.074;2022-09-09T02:02:36;98752.69;;;15.88;100.00
24858;BME280;12935;50.782;6.074;2022-09-09T02:05:24;98764.97;;;15.96;100.00
24858;BME280;12935;50.782;6.074;2022-09-09T02:08:00;98767.50;;;16.03;100.00
24858;BME280;12935;50.782;6.074;2022-09-09T02:10:42;98763.31;;;15.99;100.00
24858;BME280;12935;50.782;6.074;2022-09-09T02:13:13;98753.75;;;15.91;100.00
24858;BME280;12935;50.782;6.074;2022-09-09T02:16:00;98754.59;;;16.00;100.00
24858;BME280;12935;50.782;6.074;2022-09-09T02:18:32;98757.53;;;16.06;100.00
24858;BME280;12935;50.782;6.074;2022-09-09T02:21:00;98742.38;;;16.01;100.00
24858;BME280;12935;50.782;6.074;2022-09-09T02:23:26;98741.16;;;16.02;100.00
24858;BME280;12935;50.782;6.074;2022-09-09T02:25:53;98741.16;;;16.02;100.00
24858;BME280;12935;50.782;6.074;2022-09-09T02:28:21;98740.13;;;16.09;100.00
24858;BME280;12935;50.782;6.074;2022-09-09T02:30:50;98714.16;;;15.97;100.00
24858;BME280;12935;50.782;6.074;2022-09-09T02:33:22;98735.31;;;16.00;100.00
24858;BME280;12935;50.782;6.074;2022-09-09T02:35:51;98740.38;;;16.02;100.00
24858;BME280;12935;50.782;6.074;2022-09-09T02:38:19;98738.19;;;15.97;100.00
24858;BME280;12935;50.782;6.074;2022-09-09T02:40:46;98738.63;;;15.95;100.00
24858;BME280;12935;50.782;6.074;2022-09-09T02:43:14;98735.44;;;15.97;100.00
24858;BME280;12935;50.782;6.074;2022-09-09T02:45:53;98733.91;;;15.96;100.00
24858;BME280;12935;50.782;6.074;2022-09-09T02:48:28;98741.41;;;15.95;100.00
24858;BME280;12935;50.782;6.074;2022-09-09T02:56:17;98739.16;;;16.03;100.00
24858;BME280;12935;50.782;6.074;2022-09-09T02:58:45;98744.53;;;16.06;100.00
24858;BME280;12935;50.782;6.074;2022-09-09T03:01:11;98744.09;;;16.08;100.00
24858;BME280;12935;50.782;6.074;2022-09-09T03:03:36;98743.13;;;16.02;100.00
24858;BME280;12935;50.782;6.074;2022-09-09T03:06:02;98742.25;;;16.05;100.00
24858;BME280;12935;50.782;6.074;2022-09-09T03:08:27;98731.34;;;16.01;100.00
24858;BME280;12935;50.782;6.074;2022-09-09T03:10:58;98746.78;;;15.99;100.00
24858;BME280;12935;50.782;6.074;2022-09-09T03:13:23;98748.13;;;15.94;100.00
24858;BME280;12935;50.782;6.074;2022-09-09T03:15:50;98745.69;;;15.96;100.00
24858;BME280;12935;50.782;6.074;2022-09-09T03:18:16;98744.69;;;16.03;100.00
24858;BME280;12935;50.782;6.074;2022-09-09T03:20:42;98743.31;;;16.07;100.00
24858;BME280;12935;50.782;6.074;2022-09-09T03:23:07;98738.13;;;16.09;100.00
24858;BME280;12935;50.782;6.074;2022-09-09T03:25:33;98747.16;;;16.10;100.00
24858;BME280;12935;50.782;6.074;2022-09-09T03:27:58;98738.44;;;16.11;100.00
24858;BME280;12935;50.782;6.074;2022-09-09T03:30:25;98740.38;;;16.02;100.00
24858;BME280;12935;50.782;6.074;2022-09-09T03:32:51;98745.94;;;16.11;100.00
24858;BME280;12935;50.782;6.074;2022-09-09T03:35:17;98739.66;;;16.10;100.00
24858;BME280;12935;50.782;6.074;2022-09-09T03:37:43;98740.13;;;16.09;100.00
24858;BME280;12935;50.782;6.074;2022-09-09T03:40:09;98738.56;;;16.08;100.00
24858;BME280;12935;50.782;6.074;2022-09-09T03:42:37;98738.91;;;16.10;100.00
24858;BME280;12935;50.782;6.074;2022-09-09T03:45:04;98737.03;;;16.07;100.00
24858;BME280;12935;50.782;6.074;2022-09-09T03:47:30;98734.09;;;16.01;100.00
24858;BME280;12935;50.782;6.074;2022-09-09T03:49:55;98743.63;;;16.09;100.00
24858;BME280;12935;50.782;6.074;2022-09-09T03:52:20;98738.31;;;16.15;100.00
24858;BME280;12935;50.782;6.074;2022-09-09T03:54:49;98747.69;;;16.18;100.00
24858;BME280;12935;50.782;6.074;2022-09-09T03:57:15;98749.47;;;16.11;100.00
24858;BME280;12935;50.782;6.074;2022-09-09T03:59:42;98747.03;;;16.13;100.00
24858;BME280;12935;50.782;6.074;2022-09-09T04:02:07;98740.31;;;16.14;100.00
24858;BME280;12935;50.782;6.074;2022-09-09T04:04:32;98733.47;;;16.19;100.00
24858;BME280;12935;50.782;6.074;2022-09-09T04:06:57;98727.63;;;16.17;100.00
24858;BME280;12935;50.782;6.074;2022-09-09T04:09:23;98738.69;;;16.26;100.00
24858;BME280;12935;50.782;6.074;2022-09-09T04:11:48;98735.94;;;16.26;100.00
24858;BME280;12935;50.782;6.074;2022-09-09T04:14:14;98734.41;;;16.25;100.00
24858;BME280;12935;50.782;6.074;2022-09-09T04:16:39;98734.28;;;16.29;100.00
24858;BME280;12935;50.782;6.074;2022-09-09T04:19:08;98724.13;;;16.26;100.00
24858;BME280;12935;50.782;6.074;2022-09-09T04:21:33;98717.09;;;16.25;100.00
24858;BME280;12935;50.782;6.074;2022-09-09T04:23:58;98728.28;;;16.21;100.00
24858;BME280;12935;50.782;6.074;2022-09-09T04:26:24;98729.78;;;16.22;100.00
24858;BME280;12935;50.782;6.074;2022-09-09T04:28:49;98726.25;;;16.22;100.00
24858;BME280;12935;50.782;6.074;2022-09-09T04:31:20;98728.88;;;16.25;100.00
24858;BME280;12935;50.782;6.074;2022-09-09T04:33:48;98728.88;;;16.25;100.00
24858;BME280;12935;50.782;6.074;2022-09-09T04:36:13;98738.88;;;16.32;100.00
24858;BME280;12935;50.782;6.074;2022-09-09T04:38:39;98737.34;;;16.31;100.00
24858;BME280;12935;50.782;6.074;2022-09-09T04:41:05;98743.31;;;16.29;100.00
24858;BME280;12935;50.782;6.074;2022-09-09T04:43:30;98735.16;;;16.26;100.00
24858;BME280;12935;50.782;6.074;2022-09-09T04:45:56;98740.81;;;16.22;100.00
24858;BME280;12935;50.782;6.074;2022-09-09T04:48:22;98739.75;;;16.20;100.00
24858;BME280;12935;50.782;6.074;2022-09-09T04:50:55;98733.47;;;16.19;100.00
24858;BME280;12935;50.782;6.074;2022-09-09T04:53:21;98738.81;;;16.23;100.00
24858;BME280;12935;50.782;6.074;2022-09-09T04:55:47;98741.84;;;16.16;100.00
24858;BME280;12935;50.782;6.074;2022-09-09T04:58:12;98735.88;;;16.17;100.00
24858;BME280;12935;50.782;6.074;2022-09-09T05:00:38;98732.81;;;16.15;100.00
24858;BME280;12935;50.782;6.074;2022-09-09T05:03:05;98742.75;;;16.12;100.00
24858;BME280;12935;50.782;6.074;2022-09-09T05:05:31;98746.72;;;16.11;100.00
24858;BME280;12935;50.782;6.074;2022-09-09T05:08:07;98742.28;;;16.14;100.00
24858;BME280;12935;50.782;6.074;2022-09-09T05:10:37;98746.66;;;16.02;100.00
24858;BME280;12935;50.782;6.074;2022-09-09T05:13:02;98753.06;;;15.99;100.00
24858;BME280;12935;50.782;6.074;2022-09-09T05:15:28;98753.41;;;16.01;100.00
24858;BME280;12935;50.782;6.074;2022-09-09T05:17:57;98740.94;;;15.97;100.00
24858;BME280;12935;50.782;6.074;2022-09-09T05:20:23;98751.41;;;16.02;100.00
24858;BME280;12935;50.782;6.074;2022-09-09T05:22:52;98743.91;;;16.02;100.00
24858;BME280;12935;50.782;6.074;2022-09-09T05:25:18;98740.13;;;16.09;100.00
24858;BME280;12935;50.782;6.074;2022-09-09T05:27:44;98746.41;;;16.09;100.00
24858;BME280;12935;50.782;6.074;2022-09-09T05:30:10;98735.31;;;16.00;100.00
24858;BME280;12935;50.782;6.074;2022-09-09T05:32:35;98739.16;;;16.03;100.00
24858;BME280;12935;50.782;6.074;2022-09-09T05:35:01;98745.94;;;16.11;100.00
24858;BME280;12935;50.782;6.074;2022-09-09T05:37:26;98740.44;;;16.11;100.00
24858;BME280;12935;50.782;6.074;2022-09-09T05:39:51;98737.22;;;16.12;100.00
24858;BME280;12935;50.782;6.074;2022-09-09T05:42:18;98734.81;;;16.14;100.00
24858;BME280;12935;50.782;6.074;2022-09-09T05:44:43;98730.94;;;16.12;100.00
24858;BME280;12935;50.782;6.074;2022-09-09T05:47:10;98732.16;;;16.11;100.00
24858;BME280;12935;50.782;6.074;2022-09-09T05:49:35;98737.09;;;16.16;100.00
24858;BME280;12935;50.782;6.074;2022-09-09T05:52:01;98729.09;;;16.09;100.00
24858;BME280;12935;50.782;6.074;2022-09-09T05:54:28;98728.16;;;16.03;100.00
24858;BME280;12935;50.782;6.074;2022-09-09T05:56:53;98743.31;;;16.07;100.00
24858;BME280;12935;50.782;6.074;2022-09-09T05:59:19;98733.81;;;16.08;100.00
24858;BME280;12935;50.782;6.074;2022-09-09T06:01:45;98730.31;;;16.08;100.00
24858;BME280;12935;50.782;6.074;2022-09-09T06:04:10;98729.34;;;16.02;100.00
24858;BME280;12935;50.782;6.074;2022-09-09T06:06:38;98727.06;;;16.00;100.00
24858;BME280;12935;50.782;6.074;2022-09-09T06:09:05;98728.59;;;16.01;100.00
24858;BME280;12935;50.782;6.074;2022-09-09T06:11:36;98734.16;;;16.10;100.00
24858;BME280;12935;50.782;6.074;2022-09-09T06:14:02;98736.41;;;16.03;100.00
24858;BME280;12935;50.782;6.074;2022-09-09T06:16:29;98736.59;;;16.08;100.00
24858;BME280;12935;50.782;6.074;2022-09-09T06:18:56;98738.78;;;16.13;100.00
24858;BME280;12935;50.782;6.074;2022-09-09T06:23:48;98742.41;;;16.10;100.00
24858;BME280;12935;50.782;6.074;2022-09-09T06:26:17;98739.09;;;16.16;100.00
24858;BME280;12935;50.782;6.074;2022-09-09T06:28:44;98732.81;;;16.15;100.00
24858;BME280;12935;50.782;6.074;2022-09-09T06:31:12;98738.31;;;16.15;100.00
24858;BME280;12935;50.782;6.074;2022-09-09T06:33:39;98723.25;;;16.07;100.00
24858;BME280;12935;50.782;6.074;2022-09-09T06:36:07;98731.22;;;16.05;100.00
24858;BME280;12935;50.782;6.074;2022-09-09T06:38:34;98735.69;;;16.11;100.00
24858;BME280;12935;50.782;6.074;2022-09-09T06:41:00;98726.53;;;16.14;100.00
24858;BME280;12935;50.782;6.074;2022-09-09T06:43:26;98728.63;;;16.32;100.00
24858;BME280;12935;50.782;6.074;2022-09-09T06:46:00;98729.75;;;16.44;100.00
24858;BME280;12935;50.782;6.074;2022-09-09T06:48:26;98730.19;;;16.64;100.00
24858;BME280;12935;50.782;6.074;2022-09-09T06:51:10;98734.34;;;16.69;100.00
24858;BME280;12935;50.782;6.074;2022-09-09T06:53:39;98739.47;;;16.79;100.00
24858;BME280;12935;50.782;6.074;2022-09-09T06:58:43;98735.03;;;16.82;100.00
24858;BME280;12935;50.782;6.074;2022-09-09T07:01:13;98726.59;;;16.86;100.00
24858;BME280;12935;50.782;6.074;2022-09-09T07:03:39;98734.16;;;17.03;100.00
24858;BME280;12935;50.782;6.074;2022-09-09T07:06:06;98733.56;;;16.99;100.00
24858;BME280;12935;50.782;6.074;2022-09-09T07:08:32;98740.00;;;17.05;100.00
24858;BME280;12935;50.782;6.074;2022-09-09T07:11:05;98735.25;;;17.06;100.00
24858;BME280;12935;50.782;6.074;2022-09-09T07:13:31;98744.16;;;17.10;100.00
24858;BME280;12935;50.782;6.074;2022-09-09T07:16:13;98740.69;;;17.28;100.00
24858;BME280;12935;50.782;6.074;2022-09-09T07:18:40;98749.91;;;17.43;100.00
24858;BME280;12935;50.782;6.074;2022-09-09T07:21:06;98742.84;;;17.42;100.00
24858;BME280;12935;50.782;6.074;2022-09-09T07:23:32;98749.88;;;17.34;100.00
24858;BME280;12935;50.782;6.074;2022-09-09T07:25:58;98748.69;;;17.44;100.00
24858;BME280;12935;50.782;6.074;2022-09-09T07:28:25;98752.97;;;17.54;100.00
24858;BME280;12935;50.782;6.074;2022-09-09T07:30:59;98750.22;;;17.45;100.00
24858;BME280;12935;50.782;6.074;2022-09-09T07:33:27;98751.44;;;17.44;100.00
24858;BME280;12935;50.782;6.074;2022-09-09T07:35:53;98751.28;;;17.47;100.00
24858;BME280;12935;50.782;6.074;2022-09-09T07:38:19;98750.22;;;17.54;100.00
24858;BME280;12935;50.782;6.074;2022-09-09T07:40:45;98751.94;;;17.61;100.00
24858;BME280;12935;50.782;6.074;2022-09-09T07:43:11;98748.41;;;17.60;100.00
24858;BME280;12935;50.782;6.074;2022-09-09T07:45:36;98749.59;;;17.50;100.00
24858;BME280;12935;50.782;6.074;2022-09-09T07:48:02;98749.16;;;17.61;100.00
24858;BME280;12935;50.782;6.074;2022-09-09T07:50:28;98752.09;;;17.66;100.00
24858;BME280;12935;50.782;6.074;2022-09-09T07:52:53;98743.94;;;17.63;100.00
24858;BME280;12935;50.782;6.074;2022-09-09T07:55:22;98751.94;;;17.61;100.00
24858;BME280;12935;50.782;6.074;2022-09-09T07:57:50;98757.75;;;17.53;100.00
24858;BME280;12935;50.782;6.074;2022-09-09T08:00:16;98752.41;;;17.68;100.00
24858;BME280;12935;50.782;6.074;2022-09-09T08:02:41;98759.16;;;17.85;100.00
24858;BME280;12935;50.782;6.074;2022-09-09T08:05:07;98760.53;;;17.81;100.00
24858;BME280;12935;50.782;6.074;2022-09-09T08:07:32;98762.25;;;17.87;100.00
24858;BME280;12935;50.782;6.074;2022-09-09T08:09:57;98760.09;;;17.92;100.00
24858;BME280;12935;50.782;6.074;2022-09-09T08:12:23;98760.84;;;18.01;100.00
24858;BME280;12935;50.782;6.074;2022-09-09T08:14:48;98760.50;;;18.27;100.00
24858;BME280;12935;50.782;6.074;2022-09-09T08:17:14;98759.75;;;18.26;100.00
24858;BME280;12935;50.782;6.074;2022-09-09T08:19:39;98771.72;;;18.32;100.00
24858;BME280;12935;50.782;6.074;2022-09-09T08:22:04;98768.47;;;18.52;100.00
24858;BME280;12935;50.782;6.074;2022-09-09T08:24:30;98766.16;;;18.50;100.00
24858;BME280;12935;50.782;6.074;2022-09-09T08:26:55;98771.22;;;18.61;100.00
24858;BME280;12935;50.782;6.074;2022-09-09T08:29:22;98768.75;;;18.54;100.00
24858;BME280;12935;50.782;6.074;2022-09-09T08:31:50;98790.44;;;18.55;100.00
24858;BME280;12935;50.782;6.074;2022-09-09T08:34:16;98791.50;;;18.49;100.00
24858;BME280;12935;50.782;6.074;2022-09-09T08:36:45;98773.97;;;18.70;100.00
24858;BME280;12935;50.782;6.074;2022-09-09T08:39:13;98780.78;;;18.93;97.86
24858;BME280;12935;50.782;6.074;2022-09-09T08:44:48;98768.94;;;18.92;97.02
24858;BME280;12935;50.782;6.074;2022-09-09T08:50:27;98776.59;;;19.07;97.39
24858;BME280;12935;50.782;6.074;2022-09-09T08:53:16;98765.81;;;19.09;94.88
24858;BME280;12935;50.782;6.074;2022-09-09T08:58:17;98774.72;;;19.13;91.28
24858;BME280;12935;50.782;6.074;2022-09-09T09:00:50;98773.81;;;19.07;94.48
24858;BME280;12935;50.782;6.074;2022-09-09T09:03:40;98776.78;;;19.27;92.45
24858;BME280;12935;50.782;6.074;2022-09-09T09:11:56;98781.94;;;19.43;87.95
24858;BME280;12935;50.782;6.074;2022-09-09T09:14:27;98777.22;;;19.35;89.49
24858;BME280;12935;50.782;6.074;2022-09-09T09:16:58;98777.16;;;19.44;91.99
24858;BME280;12935;50.782;6.074;2022-09-09T09:19:24;98785.63;;;19.49;87.41
24858;BME280;12935;50.782;6.074;2022-09-09T09:22:13;98774.47;;;19.58;89.30
24858;BME280;12935;50.782;6.074;2022-09-09T09:29:58;98781.88;;;20.15;80.92
24858;BME280;12935;50.782;6.074;2022-09-09T09:32:26;98780.38;;;20.28;80.23
24858;BME280;12935;50.782;6.074;2022-09-09T09:34:56;98772.38;;;20.45;81.37
24858;BME280;12935;50.782;6.074;2022-09-09T09:37:27;98781.56;;;20.66;77.39
24858;BME280;12935;50.782;6.074;2022-09-09T09:39:54;98780.47;;;20.78;73.21
24858;BME280;12935;50.782;6.074;2022-09-09T09:42:19;98777.97;;;20.95;74.09
24858;BME280;12935;50.782;6.074;2022-09-09T09:44:44;98785.38;;;20.83;75.71
24858;BME280;12935;50.782;6.074;2022-09-09T09:47:18;98788.50;;;21.20;71.34
24858;BME280;12935;50.782;6.074;2022-09-09T09:49:57;98804.56;;;21.16;69.63
24858;BME280;12935;50.782;6.074;2022-09-09T09:52:26;98787.31;;;20.77;70.48
24858;BME280;12935;50.782;6.074;2022-09-09T09:54:54;98787.69;;;20.41;71.59
24858;BME280;12935;50.782;6.074;2022-09-09T09:57:26;98804.94;;;20.21;75.81
24858;BME280;12935;50.782;6.074;2022-09-09T10:00:15;98804.41;;;19.93;76.46
24858;BME280;12935;50.782;6.074;2022-09-09T10:02:43;98814.44;;;20.14;76.13
24858;BME280;12935;50.782;6.074;2022-09-09T10:05:20;98800.34;;;20.18;74.33
24858;BME280;12935;50.782;6.074;2022-09-09T10:07:46;98803.03;;;20.12;74.22
24858;BME280;12935;50.782;6.074;2022-09-09T10:13:11;98807.72;;;19.58;79.89
24858;BME280;12935;50.782;6.074;2022-09-09T10:18:37;98811.94;;;19.12;92.49
24858;BME280;12935;50.782;6.074;2022-09-09T10:29:02;98805.19;;;19.13;100.00
24858;BME280;12935;50.782;6.074;2022-09-09T10:36:49;98813.25;;;18.92;100.00
24858;BME280;12935;50.782;6.074;2022-09-09T10:42:09;98818.22;;;18.88;100.00
24858;BME280;12935;50.782;6.074;2022-09-09T10:50:18;98824.88;;;18.73;100.00
24858;BME280;12935;50.782;6.074;2022-09-09T10:55:38;98820.25;;;19.12;100.00
24858;BME280;12935;50.782;6.074;2022-09-09T10:58:05;98812.94;;;19.00;100.00
24858;BME280;12935;50.782;6.074;2022-09-09T11:00:44;98802.84;;;18.78;100.00
24858;BME280;12935;50.782;6.074;2022-09-09T11:03:29;98803.47;;;19.15;100.00
24858;BME280;12935;50.782;6.074;2022-09-09T11:06:05;98802.56;;;19.42;100.00
24858;BME280;12935;50.782;6.074;2022-09-09T11:08:34;98804.88;;;19.68;100.00
24858;BME280;12935;50.782;6.074;2022-09-09T11:11:09;98802.88;;;19.68;100.00
24858;BME280;12935;50.782;6.074;2022-09-09T11:16:39;98808.38;;;20.54;95.86
24858;BME280;12935;50.782;6.074;2022-09-09T11:19:11;98813.47;;;19.79;98.81
24858;BME280;12935;50.782;6.074;2022-09-09T11:21:44;98817.19;;;20.14;99.44
24858;BME280;12935;50.782;6.074;2022-09-09T11:24:16;98814.97;;;20.42;96.95
24858;BME280;12935;50.782;6.074;2022-09-09T11:29:44;98802.22;;;20.50;99.58
24858;BME280;12935;50.782;6.074;2022-09-09T11:33:07;98818.03;;;20.44;97.80
24858;BME280;12935;50.782;6.074;2022-09-09T11:35:34;98826.81;;;20.04;97.81
24858;BME280;12935;50.782;6.074;2022-09-09T11:38:46;98826.34;;;20.06;99.09
24858;BME280;12935;50.782;6.074;2022-09-09T11:41:05;98808.84;;;19.52;100.00
24858;BME280;12935;50.782;6.074;2022-09-09T11:46:03;98807.00;;;19.49;100.00
24858;BME280;12935;50.782;6.074;2022-09-09T11:48:38;98809.94;;;19.45;100.00
24858;BME280;12935;50.782;6.074;2022-09-09T11:51:34;98810.38;;;19.20;100.00
24858;BME280;12935;50.782;6.074;2022-09-09T11:54:30;98805.72;;;18.93;100.00
24858;BME280;12935;50.782;6.074;2022-09-09T11:56:55;98813.19;;;19.11;100.00
24858;BME280;12935;50.782;6.074;2022-09-09T11:59:30;98818.88;;;19.16;100.00
24858;BME280;12935;50.782;6.074;2022-09-09T12:01:58;98815.78;;;19.14;100.00
24858;BME280;12935;50.782;6.074;2022-09-09T12:09:21;98805.34;;;20.28;99.68
24858;BME280;12935;50.782;6.074;2022-09-09T12:11:48;98799.19;;;20.78;91.66
24858;BME280;12935;50.782;6.074;2022-09-09T12:19:35;98811.94;;;22.61;74.39
24858;BME280;12935;50.782;6.074;2022-09-09T12:22:07;98804.31;;;23.14;72.46
24858;BME280;12935;50.782;6.074;2022-09-09T12:24:57;98808.13;;;22.59;75.45
24858;BME280;12935;50.782;6.074;2022-09-09T12:27:29;98812.06;;;22.00;75.84
24858;BME280;12935;50.782;6.074;2022-09-09T12:32:25;98803.69;;;21.40;78.52
24858;BME280;12935;50.782;6.074;2022-09-09T12:35:04;98809.88;;;20.99;80.83
24858;BME280;12935;50.782;6.074;2022-09-09T12:37:50;98810.94;;;20.73;83.03
24858;BME280;12935;50.782;6.074;2022-09-09T12:40:24;98804.88;;;20.30;90.50
24858;BME280;12935;50.782;6.074;2022-09-09T12:42:49;98792.84;;;19.94;99.84
24858;BME280;12935;50.782;6.074;2022-09-09T12:45:20;98787.59;;;19.96;100.00
24858;BME280;12935;50.782;6.074;2022-09-09T12:47:52;98785.25;;;20.19;100.00
24858;BME280;12935;50.782;6.074;2022-09-09T12:50:25;98784.84;;;20.11;100.00
24858;BME280;12935;50.782;6.074;2022-09-09T12:52:53;98781.56;;;20.37;100.00
24858;BME280;12935;50.782;6.074;2022-09-09T12:55:28;98791.00;;;20.30;100.00
24858;BME280;12935;50.782;6.074;2022-09-09T12:57:55;98770.75;;;20.68;98.86
24858;BME280;12935;50.782;6.074;2022-09-09T13:00:23;98783.44;;;21.04;93.32
24858;BME280;12935;50.782;6.074;2022-09-09T13:02:52;98777.53;;;21.92;82.26
24858;BME280;12935;50.782;6.074;2022-09-09T13:05:31;98777.69;;;21.63;79.51
24858;BME280;12935;50.782;6.074;2022-09-09T13:08:06;98775.78;;;22.93;76.21
24858;BME280;12935;50.782;6.074;2022-09-09T13:11:00;98771.38;;;24.25;68.42
24858;BME280;12935;50.782;6.074;2022-09-09T13:13:35;98764.88;;;23.80;66.29
24858;BME280;12935;50.782;6.074;2022-09-09T13:16:03;98763.03;;;25.14;63.64
24858;BME280;12935;50.782;6.074;2022-09-09T13:18:33;98751.34;;;28.64;48.30
24858;BME280;12935;50.782;6.074;2022-09-09T13:21:00;98751.69;;;26.17;51.76
24858;BME280;12935;50.782;6.074;2022-09-09T13:23:36;98765.19;;;23.99;58.58
24858;BME280;12935;50.782;6.074;2022-09-09T13:26:05;98750.69;;;22.93;63.25
24858;BME280;12935;50.782;6.074;2022-09-09T13:28:31;98754.69;;;21.62;70.40
24858;BME280;12935;50.782;6.074;2022-09-09T13:31:01;98762.53;;;21.09;78.30
24858;BME280;12935;50.782;6.074;2022-09-09T13:38:31;98766.91;;;20.51;92.62
24858;BME280;12935;50.782;6.074;2022-09-09T13:41:05;98766.06;;;22.83;80.36
24858;BME280;12935;50.782;6.074;2022-09-09T13:43:52;98769.13;;;24.63;73.83
24858;BME280;12935;50.782;6.074;2022-09-09T13:46:37;98769.06;;;25.46;63.34
24858;BME280;12935;50.782;6.074;2022-09-09T13:54:02;98761.13;;;30.55;47.29
24858;BME280;12935;50.782;6.074;2022-09-09T13:56:27;98767.25;;;32.68;42.87
24858;BME280;12935;50.782;6.074;2022-09-09T13:58:52;98763.53;;;31.14;42.48
24858;BME280;12935;50.782;6.074;2022-09-09T14:01:18;98757.16;;;27.78;49.35
24858;BME280;12935;50.782;6.074;2022-09-09T14:03:43;98748.81;;;24.73;58.56
24858;BME280;12935;50.782;6.074;2022-09-09T14:06:10;98751.56;;;30.24;48.39
24858;BME280;12935;50.782;6.074;2022-09-09T14:08:36;98757.09;;;32.14;41.01
24858;BME280;12935;50.782;6.074;2022-09-09T14:11:05;98766.22;;;30.98;42.77
24858;BME280;12935;50.782;6.074;2022-09-09T14:13:30;98762.66;;;27.40;48.17
24858;BME280;12935;50.782;6.074;2022-09-09T14:15:56;98768.09;;;25.27;55.84
24858;BME280;12935;50.782;6.074;2022-09-09T14:18:21;98769.44;;;23.35;65.32
24858;BME280;12935;50.782;6.074;2022-09-09T14:20:48;98768.47;;;22.69;71.24
24858;BME280;12935;50.782;6.074;2022-09-09T14:23:15;98774.19;;;24.59;66.70
24858;BME280;12935;50.782;6.074;2022-09-09T14:25:41;98760.25;;;26.36;57.72
24858;BME280;12935;50.782;6.074;2022-09-09T14:28:10;98775.94;;;24.28;63.17
24858;BME280;12935;50.782;6.074;2022-09-09T14:30:37;98774.78;;;22.96;70.12
24858;BME280;12935;50.782;6.074;2022-09-09T14:33:02;98777.06;;;22.14;75.78
24858;BME280;12935;50.782;6.074;2022-09-09T14:35:28;98786.72;;;21.58;81.70
24858;BME280;12935;50.782;6.074;2022-09-09T14:37:53;98776.00;;;21.30;84.44
24858;BME280;12935;50.782;6.074;2022-09-09T14:40:20;98777.50;;;21.66;83.55
24858;BME280;12935;50.782;6.074;2022-09-09T14:42:45;98775.78;;;21.69;86.11
24858;BME280;12935;50.782;6.074;2022-09-09T14:45:11;98769.72;;;21.70;86.02
24858;BME280;12935;50.782;6.074;2022-09-09T14:47:36;98781.59;;;21.51;89.97
24858;BME280;12935;50.782;6.074;2022-09-09T14:50:03;98776.25;;;20.97;92.33
24858;BME280;12935;50.782;6.074;2022-09-09T14:52:30;98772.06;;;20.87;92.53
24858;BME280;12935;50.782;6.074;2022-09-09T14:54:55;98775.00;;;20.98;93.71
24858;BME280;12935;50.782;6.074;2022-09-09T14:57:21;98769.63;;;21.45;92.54
24858;BME280;12935;50.782;6.074;2022-09-09T14:59:46;98774.28;;;21.18;89.72